Check out our new PWSWeather beta!
PWSweather.com
Personal Weather Stations
Station Observations
AC5JC
Greenleaf Peninsula, Waco, Waco, TX 76710

Greenleaf Peninsula, WacoWaco, TX 76710

Lat: 31.565, Lon: -97.198

Elevation: 570

Station Type: Ambient WS-1400IP

http://ac5jc.dyndns.org

Latest ConditionsUpdated 12:39:00 PM CST Monday, Feb 24, 2020
Currently Today's Max Today's Min Today's Average
Temperature 64.2°F17.9°C 64.4°F18.0°C 55.8°F13.2°C 61.1°F16.2°C
Dew Point 40.8°F4.9°C 62.6°F17.0°C 39.2°F4.0°C 53.0°F11.7°C
Winds 2.7 mph WSW4.3 kmh WSW 14.1 mph -22.7 kmh - - 3.2 mph 5.1 kmh
Wind Gusts 10.1 mph16.3 kmh 20.1 mph32.3 kmh - -
Humidity 42% 97% 42% 77%
Pressure 29.82 in1009.8 mb 29.88 in1011.9 mb 29.80 in1009.1 mb -
Hour Temp Dew Point Humidity Winds Wind Gusts Pressure Precip Precip Rate Daily Precip Total
12:39 PM 64.2°F17.9°C 40.8°F4.9°C 42% 2.7 mph WSW4.3 kmh WSW 10.1 mph16.3 kmh 29.82 in1009.8 mb 0.00 in0.0 mm 0.00 in0.0 mm 0.00 in0.0 mm
12:36 PM 63.5°F17.5°C 40.0°F4.4°C 42% 2.5 mph W4.0 kmh W 4.9 mph7.9 kmh 29.82 in1009.8 mb 0.00 in0.0 mm 0.00 in0.0 mm 0.00 in0.0 mm
12:33 PM 64.0°F17.8°C 40.6°F4.8°C 42% 3.9 mph W6.3 kmh W 7.6 mph12.2 kmh 29.82 in1009.8 mb 0.00 in0.0 mm 0.00 in0.0 mm 0.00 in0.0 mm
12:30 PM 63.6°F17.6°C 40.1°F4.5°C 42% 3.0 mph SW4.8 kmh SW 7.6 mph12.2 kmh 29.82 in1009.8 mb 0.00 in0.0 mm 0.00 in0.0 mm 0.00 in0.0 mm
12:27 PM 63.2°F17.3°C 39.7°F4.3°C 42% 2.2 mph SW3.5 kmh SW 4.9 mph7.9 kmh 29.83 in1010.2 mb 0.00 in0.0 mm 0.00 in0.0 mm 0.00 in0.0 mm
12:24 PM 62.8°F17.1°C 39.8°F4.3°C 43% 5.8 mph W9.3 kmh W 10.1 mph16.3 kmh 29.83 in1010.2 mb 0.00 in0.0 mm 0.00 in0.0 mm 0.00 in0.0 mm
12:21 PM 63.0°F17.2°C 40.6°F4.8°C 44% 5.0 mph WSW8.0 kmh WSW 12.5 mph20.1 kmh 29.83 in1010.2 mb 0.00 in0.0 mm 0.00 in0.0 mm 0.00 in0.0 mm
12:18 PM 62.7°F17.1°C 40.5°F4.7°C 44% 5.6 mph WSW9.0 kmh WSW 12.5 mph20.1 kmh 29.83 in1010.2 mb 0.00 in0.0 mm 0.00 in0.0 mm 0.00 in0.0 mm
12:15 PM 62.8°F17.1°C 41.1°F5.1°C 45% 3.8 mph W6.1 kmh W 10.1 mph16.3 kmh 29.83 in1010.2 mb 0.00 in0.0 mm 0.00 in0.0 mm 0.00 in0.0 mm
12:12 PM 63.0°F17.2°C 41.2°F5.1°C 45% 3.3 mph SW5.3 kmh SW 7.6 mph12.2 kmh 29.84 in1010.5 mb 0.00 in0.0 mm 0.00 in0.0 mm 0.00 in0.0 mm
12:09 PM 62.5°F16.9°C 41.1°F5.1°C 46% 2.5 mph WSW4.0 kmh WSW 4.9 mph7.9 kmh 29.84 in1010.5 mb 0.00 in0.0 mm 0.00 in0.0 mm 0.00 in0.0 mm
12:06 PM 62.3°F16.8°C 41.8°F5.4°C 47% 1.3 mph W2.1 kmh W 4.9 mph7.9 kmh 29.84 in1010.5 mb 0.00 in0.0 mm 0.00 in0.0 mm 0.00 in0.0 mm
12:03 PM 62.0°F16.7°C 42.1°F5.6°C 48% 5.0 mph NNW8.0 kmh NNW 7.6 mph12.2 kmh 29.84 in1010.5 mb 0.00 in0.0 mm 0.00 in0.0 mm 0.00 in0.0 mm
12:00 PM 61.8°F16.6°C 41.1°F5.1°C 46% 3.1 mph SW5.0 kmh SW 10.1 mph16.3 kmh 29.84 in1010.5 mb 0.00 in0.0 mm 0.00 in0.0 mm 0.00 in0.0 mm
11:57 AM 61.7°F16.5°C 40.7°F4.8°C 46% 3.6 mph WSW5.8 kmh WSW 4.9 mph7.9 kmh 29.84 in1010.5 mb 0.00 in0.0 mm 0.00 in0.0 mm 0.00 in0.0 mm
11:54 AM 61.9°F16.6°C 41.1°F5.1°C 46% 6.5 mph W10.5 kmh W 12.5 mph20.1 kmh 29.84 in1010.5 mb 0.00 in0.0 mm 0.00 in0.0 mm 0.00 in0.0 mm
11:51 AM 61.5°F16.4°C 42.0°F5.6°C 49% 4.2 mph W6.8 kmh W 7.6 mph12.2 kmh 29.85 in1010.8 mb 0.00 in0.0 mm 0.00 in0.0 mm 0.00 in0.0 mm
11:48 AM 61.6°F16.4°C 42.0°F5.6°C 48% 3.9 mph W6.3 kmh W 10.1 mph16.3 kmh 29.85 in1010.8 mb 0.00 in0.0 mm 0.00 in0.0 mm 0.00 in0.0 mm
11:45 AM 61.3°F16.3°C 40.5°F4.7°C 46% 5.2 mph WSW8.4 kmh WSW 10.1 mph16.3 kmh 29.85 in1010.8 mb 0.00 in0.0 mm 0.00 in0.0 mm 0.00 in0.0 mm
11:42 AM 61.5°F16.4°C 39.9°F4.4°C 45% 3.4 mph WSW5.5 kmh WSW 4.9 mph7.9 kmh 29.84 in1010.5 mb 0.00 in0.0 mm 0.00 in0.0 mm 0.00 in0.0 mm
11:39 AM 61.5°F16.4°C 40.0°F4.4°C 45% 2.4 mph SW3.9 kmh SW 4.9 mph7.9 kmh 29.85 in1010.8 mb 0.00 in0.0 mm 0.00 in0.0 mm 0.00 in0.0 mm
11:36 AM 61.5°F16.4°C 40.0°F4.4°C 45% 7.1 mph W11.4 kmh W 15.0 mph24.1 kmh 29.85 in1010.8 mb 0.00 in0.0 mm 0.00 in0.0 mm 0.00 in0.0 mm
11:33 AM 61.5°F16.4°C 39.3°F4.1°C 44% 3.4 mph WSW5.5 kmh WSW 10.1 mph16.3 kmh 29.85 in1010.8 mb 0.00 in0.0 mm 0.00 in0.0 mm 0.00 in0.0 mm
11:30 AM 61.6°F16.4°C 39.5°F4.2°C 44% 2.7 mph WSW4.3 kmh WSW 7.6 mph12.2 kmh 29.85 in1010.8 mb 0.00 in0.0 mm 0.00 in0.0 mm 0.00 in0.0 mm
11:27 AM 61.3°F16.3°C 39.2°F4.0°C 44% 3.5 mph WSW5.6 kmh WSW 7.6 mph12.2 kmh 29.85 in1010.8 mb 0.00 in0.0 mm 0.00 in0.0 mm 0.00 in0.0 mm
11:24 AM 61.5°F16.4°C 39.5°F4.2°C 44% 4.4 mph SW7.1 kmh SW 7.6 mph12.2 kmh 29.85 in1010.8 mb 0.00 in0.0 mm 0.00 in0.0 mm 0.00 in0.0 mm
11:21 AM 61.3°F16.3°C 39.8°F4.3°C 45% 4.9 mph WSW7.9 kmh WSW 10.1 mph16.3 kmh 29.85 in1010.8 mb 0.00 in0.0 mm 0.00 in0.0 mm 0.00 in0.0 mm
11:18 AM 61.5°F16.4°C 39.6°F4.2°C 44% 4.3 mph WSW6.9 kmh WSW 7.6 mph12.2 kmh 29.86 in1011.2 mb 0.00 in0.0 mm 0.00 in0.0 mm 0.00 in0.0 mm
11:15 AM 61.2°F16.2°C 40.1°F4.5°C 46% 7.7 mph WSW12.4 kmh WSW 15.0 mph24.1 kmh 29.86 in1011.2 mb 0.00 in0.0 mm 0.00 in0.0 mm 0.00 in0.0 mm
11:12 AM 61.0°F16.1°C 39.7°F4.3°C 46% 5.0 mph WSW8.0 kmh WSW 10.1 mph16.3 kmh 29.85 in1010.8 mb 0.00 in0.0 mm 0.00 in0.0 mm 0.00 in0.0 mm
11:09 AM 61.0°F16.1°C 40.2°F4.6°C 46% 2.0 mph SW3.2 kmh SW 4.9 mph7.9 kmh 29.86 in1011.2 mb 0.00 in0.0 mm 0.00 in0.0 mm 0.00 in0.0 mm
11:06 AM 61.2°F16.2°C 41.9°F5.5°C 49% 1.8 mph SW2.9 kmh SW 4.9 mph7.9 kmh 29.86 in1011.2 mb 0.00 in0.0 mm 0.00 in0.0 mm 0.00 in0.0 mm
11:03 AM 61.2°F16.2°C 41.3°F5.2°C 48% 2.8 mph WSW4.5 kmh WSW 7.6 mph12.2 kmh 29.86 in1011.2 mb 0.00 in0.0 mm 0.00 in0.0 mm 0.00 in0.0 mm
11:00 AM 61.0°F16.1°C 41.7°F5.4°C 49% 5.1 mph W8.2 kmh W 12.5 mph20.1 kmh 29.86 in1011.2 mb 0.00 in0.0 mm 0.00 in0.0 mm 0.00 in0.0 mm
10:57 AM 61.0°F16.1°C 42.0°F5.6°C 50% 5.8 mph WSW9.3 kmh WSW 10.1 mph16.3 kmh 29.86 in1011.2 mb 0.00 in0.0 mm 0.00 in0.0 mm 0.00 in0.0 mm
10:54 AM 60.8°F16.0°C 42.1°F5.6°C 50% 4.7 mph WSW7.6 kmh WSW 7.6 mph12.2 kmh 29.86 in1011.2 mb 0.00 in0.0 mm 0.00 in0.0 mm 0.00 in0.0 mm
10:51 AM 60.7°F15.9°C 42.0°F5.6°C 50% 1.1 mph W1.8 kmh W 7.6 mph12.2 kmh 29.86 in1011.2 mb 0.00 in0.0 mm 0.00 in0.0 mm 0.00 in0.0 mm
10:48 AM 60.6°F15.9°C 41.3°F5.2°C 49% 0.5 mph WSW0.8 kmh WSW 2.5 mph4.0 kmh 29.86 in1011.2 mb 0.00 in0.0 mm 0.00 in0.0 mm 0.00 in0.0 mm
10:45 AM 60.2°F15.7°C 41.2°F5.1°C 50% 3.1 mph WSW5.0 kmh WSW 7.6 mph12.2 kmh 29.87 in1011.5 mb 0.00 in0.0 mm 0.00 in0.0 mm 0.00 in0.0 mm
10:42 AM 60.7°F15.9°C 41.6°F5.3°C 49% 3.3 mph WNW5.3 kmh WNW 12.5 mph20.1 kmh 29.86 in1011.2 mb 0.00 in0.0 mm 0.00 in0.0 mm 0.00 in0.0 mm
10:39 AM 60.8°F16.0°C 41.6°F5.3°C 49% 3.2 mph W5.1 kmh W 12.5 mph20.1 kmh 29.87 in1011.5 mb 0.00 in0.0 mm 0.00 in0.0 mm 0.00 in0.0 mm
10:36 AM 60.4°F15.8°C 41.7°F5.4°C 50% 3.5 mph WSW5.6 kmh WSW 7.6 mph12.2 kmh 29.86 in1011.2 mb 0.00 in0.0 mm 0.00 in0.0 mm 0.00 in0.0 mm
10:33 AM 60.2°F15.7°C 41.5°F5.3°C 50% 4.4 mph WSW7.1 kmh WSW 7.6 mph12.2 kmh 29.86 in1011.2 mb 0.00 in0.0 mm 0.00 in0.0 mm 0.00 in0.0 mm
10:30 AM 59.9°F15.5°C 41.7°F5.4°C 51% 4.6 mph WSW7.4 kmh WSW 10.1 mph16.3 kmh 29.86 in1011.2 mb 0.00 in0.0 mm 0.00 in0.0 mm 0.00 in0.0 mm
10:27 AM 59.3°F15.2°C 41.6°F5.3°C 52% 2.7 mph WSW4.3 kmh WSW 4.9 mph7.9 kmh 29.87 in1011.5 mb 0.00 in0.0 mm 0.00 in0.0 mm 0.00 in0.0 mm
10:24 AM 59.9°F15.5°C 42.5°F5.8°C 52% 4.0 mph W6.4 kmh W 7.6 mph12.2 kmh 29.87 in1011.5 mb 0.00 in0.0 mm 0.00 in0.0 mm 0.00 in0.0 mm
10:21 AM 59.2°F15.1°C 41.7°F5.4°C 52% 4.2 mph WNW6.8 kmh WNW 7.6 mph12.2 kmh 29.87 in1011.5 mb 0.00 in0.0 mm 0.00 in0.0 mm 0.00 in0.0 mm
10:18 AM 59.3°F15.2°C 41.7°F5.4°C 52% 3.6 mph W5.8 kmh W 4.9 mph7.9 kmh 29.87 in1011.5 mb 0.00 in0.0 mm 0.00 in0.0 mm 0.00 in0.0 mm
10:15 AM 59.4°F15.2°C 41.7°F5.4°C 52% 2.6 mph WSW4.2 kmh WSW 10.1 mph16.3 kmh 29.87 in1011.5 mb 0.00 in0.0 mm 0.00 in0.0 mm 0.00 in0.0 mm
10:12 AM 59.5°F15.3°C 42.3°F5.7°C 53% 2.0 mph WNW3.2 kmh WNW 7.6 mph12.2 kmh 29.87 in1011.5 mb 0.00 in0.0 mm 0.00 in0.0 mm 0.00 in0.0 mm
10:09 AM 59.6°F15.3°C 42.7°F5.9°C 54% 3.5 mph NW5.6 kmh NW 12.5 mph20.1 kmh 29.87 in1011.5 mb 0.00 in0.0 mm 0.00 in0.0 mm 0.00 in0.0 mm
10:06 AM 59.4°F15.2°C 42.2°F5.7°C 53% 2.0 mph WSW3.2 kmh WSW 4.9 mph7.9 kmh 29.87 in1011.5 mb 0.00 in0.0 mm 0.00 in0.0 mm 0.00 in0.0 mm
10:03 AM 59.3°F15.2°C 42.2°F5.7°C 53% 0.6 mph W1.0 kmh W 2.5 mph4.0 kmh 29.88 in1011.9 mb 0.00 in0.0 mm 0.00 in0.0 mm 0.00 in0.0 mm
10:00 AM 59.0°F15.0°C 41.8°F5.4°C 53% 1.0 mph W1.6 kmh W 4.9 mph7.9 kmh 29.87 in1011.5 mb 0.00 in0.0 mm 0.00 in0.0 mm 0.00 in0.0 mm
09:57 AM 59.1°F15.1°C 41.9°F5.5°C 53% 3.4 mph SW5.5 kmh SW 4.9 mph7.9 kmh 29.87 in1011.5 mb 0.00 in0.0 mm 0.00 in0.0 mm 0.00 in0.0 mm
09:54 AM 59.0°F15.0°C 41.9°F5.5°C 53% 3.5 mph W5.6 kmh W 7.6 mph12.2 kmh 29.87 in1011.5 mb 0.00 in0.0 mm 0.00 in0.0 mm 0.00 in0.0 mm
09:51 AM 58.8°F14.9°C 42.7°F5.9°C 55% 1.1 mph WSW1.8 kmh WSW 2.5 mph4.0 kmh 29.87 in1011.5 mb 0.00 in0.0 mm 0.00 in0.0 mm 0.00 in0.0 mm
09:48 AM 58.6°F14.8°C 42.5°F5.8°C 55% 0.1 mph WSW0.2 kmh WSW 2.5 mph4.0 kmh 29.87 in1011.5 mb 0.00 in0.0 mm 0.00 in0.0 mm 0.00 in0.0 mm
09:45 AM 58.3°F14.6°C 42.7°F5.9°C 56% 1.5 mph W2.4 kmh W 4.9 mph7.9 kmh 29.87 in1011.5 mb 0.00 in0.0 mm 0.00 in0.0 mm 0.00 in0.0 mm
09:42 AM 58.3°F14.6°C 43.0°F6.1°C 57% 1.1 mph WSW1.8 kmh WSW 7.6 mph12.2 kmh 29.87 in1011.5 mb 0.00 in0.0 mm 0.00 in0.0 mm 0.00 in0.0 mm
09:39 AM 58.1°F14.5°C 42.9°F6.1°C 57% 1.8 mph W2.9 kmh W 7.6 mph12.2 kmh 29.87 in1011.5 mb 0.00 in0.0 mm 0.00 in0.0 mm 0.00 in0.0 mm
09:36 AM 57.7°F14.3°C 42.3°F5.7°C 56% 2.9 mph W4.7 kmh W 10.1 mph16.3 kmh 29.87 in1011.5 mb 0.00 in0.0 mm 0.00 in0.0 mm 0.00 in0.0 mm
09:33 AM 56.8°F13.8°C 42.2°F5.7°C 58% 1.8 mph SW2.9 kmh SW 7.6 mph12.2 kmh 29.87 in1011.5 mb 0.00 in0.0 mm 0.00 in0.0 mm 0.00 in0.0 mm
09:30 AM 56.9°F13.8°C 42.3°F5.7°C 58% 4.0 mph W6.4 kmh W 7.6 mph12.2 kmh 29.88 in1011.9 mb 0.00 in0.0 mm 0.00 in0.0 mm 0.00 in0.0 mm
09:27 AM 56.8°F13.8°C 42.2°F5.7°C 58% 4.0 mph W6.4 kmh W 7.6 mph12.2 kmh 29.88 in1011.9 mb 0.00 in0.0 mm 0.00 in0.0 mm 0.00 in0.0 mm
09:24 AM 56.3°F13.5°C 42.2°F5.7°C 59% 2.0 mph W3.2 kmh W 4.9 mph7.9 kmh 29.88 in1011.9 mb 0.00 in0.0 mm 0.00 in0.0 mm 0.00 in0.0 mm
09:21 AM 56.5°F13.6°C 42.3°F5.7°C 59% 3.2 mph W5.1 kmh W 7.6 mph12.2 kmh 29.88 in1011.9 mb 0.00 in0.0 mm 0.00 in0.0 mm 0.00 in0.0 mm
09:18 AM 56.8°F13.8°C 42.8°F6.0°C 60% 1.7 mph W2.7 kmh W 4.9 mph7.9 kmh 29.88 in1011.9 mb 0.00 in0.0 mm 0.00 in0.0 mm 0.00 in0.0 mm
09:15 AM 56.2°F13.4°C 42.6°F5.9°C 60% 1.5 mph WSW2.4 kmh WSW 2.5 mph4.0 kmh 29.88 in1011.9 mb 0.00 in0.0 mm 0.00 in0.0 mm 0.00 in0.0 mm
09:12 AM 56.3°F13.5°C 43.1°F6.2°C 61% 2.2 mph W3.5 kmh W 4.9 mph7.9 kmh 29.88 in1011.9 mb 0.00 in0.0 mm 0.00 in0.0 mm 0.00 in0.0 mm
09:09 AM 57.0°F13.9°C 44.0°F6.7°C 62% 1.3 mph W2.1 kmh W 4.9 mph7.9 kmh 29.88 in1011.9 mb 0.00 in0.0 mm 0.00 in0.0 mm 0.00 in0.0 mm
09:06 AM 56.5°F13.6°C 43.6°F6.4°C 62% 1.9 mph WSW3.1 kmh WSW 4.9 mph7.9 kmh 29.88 in1011.9 mb 0.00 in0.0 mm 0.00 in0.0 mm 0.00 in0.0 mm
09:03 AM 56.3°F13.5°C 43.5°F6.4°C 62% 2.3 mph WNW3.7 kmh WNW 7.6 mph12.2 kmh 29.88 in1011.9 mb 0.00 in0.0 mm 0.00 in0.0 mm 0.00 in0.0 mm
09:00 AM 56.5°F13.6°C 43.4°F6.3°C 61% 1.2 mph WSW1.9 kmh WSW 4.9 mph7.9 kmh 29.88 in1011.9 mb 0.00 in0.0 mm 0.00 in0.0 mm 0.00 in0.0 mm
08:57 AM 56.4°F13.6°C 43.1°F6.2°C 61% 2.7 mph W4.3 kmh W 4.9 mph7.9 kmh 29.88 in1011.9 mb 0.00 in0.0 mm 0.00 in0.0 mm 0.00 in0.0 mm
08:54 AM 55.8°F13.2°C 42.6°F5.9°C 61% 5.7 mph WNW9.2 kmh WNW 10.1 mph16.3 kmh 29.88 in1011.9 mb 0.00 in0.0 mm 0.00 in0.0 mm 0.00 in0.0 mm
08:51 AM 56.6°F13.7°C 43.3°F6.3°C 61% 2.5 mph WSW4.0 kmh WSW 4.9 mph7.9 kmh 29.88 in1011.9 mb 0.00 in0.0 mm 0.00 in0.0 mm 0.00 in0.0 mm
08:48 AM 56.6°F13.7°C 43.3°F6.3°C 61% 0.9 mph W1.4 kmh W 4.9 mph7.9 kmh 29.88 in1011.9 mb 0.00 in0.0 mm 0.00 in0.0 mm 0.00 in0.0 mm
08:45 AM 56.1°F13.4°C 43.1°F6.2°C 62% 6.2 mph NW10.0 kmh NW 10.1 mph16.3 kmh 29.88 in1011.9 mb 0.00 in0.0 mm 0.00 in0.0 mm 0.00 in0.0 mm
08:42 AM 56.8°F13.8°C 43.9°F6.6°C 62% 6.1 mph W9.8 kmh W 12.5 mph20.1 kmh 29.87 in1011.5 mb 0.00 in0.0 mm 0.00 in0.0 mm 0.00 in0.0 mm
08:39 AM 56.8°F13.8°C 43.9°F6.6°C 62% 1.9 mph WSW3.1 kmh WSW 7.6 mph12.2 kmh 29.88 in1011.9 mb 0.00 in0.0 mm 0.00 in0.0 mm 0.00 in0.0 mm
08:36 AM 56.8°F13.8°C 43.9°F6.6°C 62% 1.4 mph W2.3 kmh W 4.9 mph7.9 kmh 29.87 in1011.5 mb 0.00 in0.0 mm 0.00 in0.0 mm 0.00 in0.0 mm
08:33 AM 56.8°F13.8°C 43.9°F6.6°C 62% 2.0 mph WNW3.2 kmh WNW 4.9 mph7.9 kmh 29.87 in1011.5 mb 0.00 in0.0 mm 0.00 in0.0 mm 0.00 in0.0 mm
08:30 AM 56.8°F13.8°C 43.9°F6.6°C 62% 2.8 mph W4.5 kmh W 4.9 mph7.9 kmh 29.87 in1011.5 mb 0.00 in0.0 mm 0.00 in0.0 mm 0.00 in0.0 mm
08:27 AM 56.8°F13.8°C 43.9°F6.6°C 62% 4.5 mph WSW7.2 kmh WSW 10.1 mph16.3 kmh 29.87 in1011.5 mb 0.00 in0.0 mm 0.00 in0.0 mm 0.00 in0.0 mm
08:24 AM 56.8°F13.8°C 44.3°F6.8°C 63% 1.8 mph WSW2.9 kmh WSW 4.9 mph7.9 kmh 29.87 in1011.5 mb 0.00 in0.0 mm 0.00 in0.0 mm 0.00 in0.0 mm
08:21 AM 56.8°F13.8°C 44.7°F7.1°C 64% 1.3 mph WSW2.1 kmh WSW 2.5 mph4.0 kmh 29.87 in1011.5 mb 0.00 in0.0 mm 0.00 in0.0 mm 0.00 in0.0 mm
08:18 AM 56.7°F13.7°C 44.7°F7.1°C 64% 1.6 mph WSW2.6 kmh WSW 2.5 mph4.0 kmh 29.88 in1011.9 mb 0.00 in0.0 mm 0.00 in0.0 mm 0.00 in0.0 mm
08:15 AM 56.7°F13.7°C 44.7°F7.1°C 64% 0.6 mph WSW1.0 kmh WSW 2.5 mph4.0 kmh 29.87 in1011.5 mb 0.00 in0.0 mm 0.00 in0.0 mm 0.00 in0.0 mm
08:12 AM 56.7°F13.7°C 45.0°F7.2°C 65% 1.4 mph WSW2.3 kmh WSW 2.5 mph4.0 kmh 29.86 in1011.2 mb 0.00 in0.0 mm 0.00 in0.0 mm 0.00 in0.0 mm
08:09 AM 56.7°F13.7°C 45.1°F7.3°C 65% 2.7 mph W4.3 kmh W 10.1 mph16.3 kmh 29.87 in1011.5 mb 0.00 in0.0 mm 0.00 in0.0 mm 0.00 in0.0 mm
08:06 AM 56.8°F13.8°C 45.1°F7.3°C 65% 2.1 mph W3.4 kmh W 4.9 mph7.9 kmh 29.87 in1011.5 mb 0.00 in0.0 mm 0.00 in0.0 mm 0.00 in0.0 mm
08:03 AM 56.9°F13.8°C 45.6°F7.6°C 66% 1.9 mph WSW3.1 kmh WSW 2.5 mph4.0 kmh 29.87 in1011.5 mb 0.00 in0.0 mm 0.00 in0.0 mm 0.00 in0.0 mm
08:00 AM 57.2°F14.0°C 45.5°F7.5°C 65% 1.6 mph W2.6 kmh W 2.5 mph4.0 kmh 29.87 in1011.5 mb 0.00 in0.0 mm 0.00 in0.0 mm 0.00 in0.0 mm
07:57 AM 57.2°F14.0°C 45.4°F7.4°C 65% 2.7 mph WSW4.3 kmh WSW 4.9 mph7.9 kmh 29.87 in1011.5 mb 0.00 in0.0 mm 0.00 in0.0 mm 0.00 in0.0 mm
07:54 AM 57.6°F14.2°C 45.9°F7.7°C 65% 1.3 mph W2.1 kmh W 4.9 mph7.9 kmh 29.87 in1011.5 mb 0.00 in0.0 mm 0.00 in0.0 mm 0.00 in0.0 mm
07:51 AM 57.7°F14.3°C 45.6°F7.6°C 64% 2.0 mph WNW3.2 kmh WNW 7.6 mph12.2 kmh 29.87 in1011.5 mb 0.00 in0.0 mm 0.00 in0.0 mm 0.00 in0.0 mm
07:48 AM 57.8°F14.3°C 46.1°F7.8°C 65% 1.3 mph W2.1 kmh W 4.9 mph7.9 kmh 29.86 in1011.2 mb 0.00 in0.0 mm 0.00 in0.0 mm 0.00 in0.0 mm
07:45 AM 58.1°F14.5°C 46.4°F8.0°C 65% 1.8 mph WNW2.9 kmh WNW 4.9 mph7.9 kmh 29.86 in1011.2 mb 0.00 in0.0 mm 0.00 in0.0 mm 0.00 in0.0 mm
07:42 AM 58.5°F14.7°C 47.1°F8.4°C 66% 1.7 mph WSW2.7 kmh WSW 4.9 mph7.9 kmh 29.86 in1011.2 mb 0.00 in0.0 mm 0.00 in0.0 mm 0.00 in0.0 mm
07:39 AM 58.6°F14.8°C 47.5°F8.6°C 66% 3.2 mph WSW5.1 kmh WSW 7.6 mph12.2 kmh 29.86 in1011.2 mb 0.00 in0.0 mm 0.00 in0.0 mm 0.00 in0.0 mm
07:36 AM 58.7°F14.8°C 48.0°F8.9°C 68% 0.2 mph WSW0.3 kmh WSW 2.5 mph4.0 kmh 29.85 in1010.8 mb 0.00 in0.0 mm 0.00 in0.0 mm 0.00 in0.0 mm
07:33 AM 58.7°F14.8°C 48.7°F9.3°C 69% 1.6 mph SW2.6 kmh SW 4.9 mph7.9 kmh 29.85 in1010.8 mb 0.00 in0.0 mm 0.00 in0.0 mm 0.00 in0.0 mm
07:30 AM 58.6°F14.8°C 49.3°F9.6°C 71% 1.1 mph SSW1.8 kmh SSW 2.5 mph4.0 kmh 29.85 in1010.8 mb 0.00 in0.0 mm 0.00 in0.0 mm 0.00 in0.0 mm
07:27 AM 58.8°F14.9°C 50.0°F10.0°C 72% 1.2 mph WSW1.9 kmh WSW 2.5 mph4.0 kmh 29.84 in1010.5 mb 0.00 in0.0 mm 0.00 in0.0 mm 0.00 in0.0 mm
07:24 AM 59.0°F15.0°C 50.8°F10.4°C 74% 2.6 mph WSW4.2 kmh WSW 4.9 mph7.9 kmh 29.85 in1010.8 mb 0.00 in0.0 mm 0.00 in0.0 mm 0.00 in0.0 mm
07:21 AM 58.2°F14.6°C 51.6°F10.9°C 79% 2.2 mph SW3.5 kmh SW 4.9 mph7.9 kmh 29.84 in1010.5 mb 0.00 in0.0 mm 0.00 in0.0 mm 0.00 in0.0 mm
07:18 AM 58.1°F14.5°C 51.9°F11.1°C 80% 1.9 mph W3.1 kmh W 4.9 mph7.9 kmh 29.84 in1010.5 mb 0.00 in0.0 mm 0.00 in0.0 mm 0.00 in0.0 mm
07:15 AM 58.4°F14.7°C 52.4°F11.3°C 80% 0.8 mph WSW1.3 kmh WSW 2.5 mph4.0 kmh 29.84 in1010.5 mb 0.00 in0.0 mm 0.00 in0.0 mm 0.00 in0.0 mm
07:12 AM 58.1°F14.5°C 52.3°F11.3°C 81% 2.3 mph WSW3.7 kmh WSW 4.9 mph7.9 kmh 29.84 in1010.5 mb 0.00 in0.0 mm 0.00 in0.0 mm 0.00 in0.0 mm
07:09 AM 58.2°F14.6°C 52.5°F11.4°C 82% 0.7 mph WSW1.1 kmh WSW 2.5 mph4.0 kmh 29.84 in1010.5 mb 0.00 in0.0 mm 0.00 in0.0 mm 0.00 in0.0 mm
07:06 AM 58.2°F14.6°C 52.7°F11.5°C 82% 1.4 mph W2.3 kmh W 4.9 mph7.9 kmh 29.84 in1010.5 mb 0.00 in0.0 mm 0.00 in0.0 mm 0.00 in0.0 mm
07:03 AM 58.5°F14.7°C 53.3°F11.8°C 83% 1.2 mph WSW1.9 kmh WSW 2.5 mph4.0 kmh 29.84 in1010.5 mb 0.00 in0.0 mm 0.00 in0.0 mm 0.00 in0.0 mm
07:00 AM 58.8°F14.9°C 54.1°F12.3°C 84% 1.1 mph SW1.8 kmh SW 2.5 mph4.0 kmh 29.82 in1009.8 mb 0.00 in0.0 mm 0.00 in0.0 mm 0.00 in0.0 mm
06:57 AM 58.8°F14.9°C 54.9°F12.7°C 87% 0.2 mph SW0.3 kmh SW 2.5 mph4.0 kmh 29.84 in1010.5 mb 0.00 in0.0 mm 0.00 in0.0 mm 0.00 in0.0 mm
06:54 AM 58.8°F14.9°C 55.8°F13.2°C 90% 1.3 mph WSW2.1 kmh WSW 2.5 mph4.0 kmh 29.83 in1010.2 mb 0.00 in0.0 mm 0.00 in0.0 mm 0.00 in0.0 mm
06:51 AM 58.8°F14.9°C 56.1°F13.4°C 91% 1.8 mph SW2.9 kmh SW 4.9 mph7.9 kmh 29.83 in1010.2 mb 0.00 in0.0 mm 0.00 in0.0 mm 0.00 in0.0 mm
06:48 AM 58.8°F14.9°C 56.6°F13.7°C 92% 1.7 mph SW2.7 kmh SW 2.5 mph4.0 kmh 29.82 in1009.8 mb 0.00 in0.0 mm 0.00 in0.0 mm 0.00 in0.0 mm
06:45 AM 59.0°F15.0°C 56.8°F13.8°C 92% 1.1 mph WSW1.8 kmh WSW 2.5 mph4.0 kmh 29.83 in1010.2 mb 0.00 in0.0 mm 0.00 in0.0 mm 0.00 in0.0 mm
06:42 AM 59.4°F15.2°C 57.6°F14.2°C 94% 2.1 mph SW3.4 kmh SW 4.9 mph7.9 kmh 29.83 in1010.2 mb 0.00 in0.0 mm 0.00 in0.0 mm 0.00 in0.0 mm
06:39 AM 59.7°F15.4°C 58.2°F14.6°C 95% 1.5 mph WSW2.4 kmh WSW 2.5 mph4.0 kmh 29.83 in1010.2 mb 0.00 in0.0 mm 0.00 in0.0 mm 0.00 in0.0 mm
06:36 AM 59.8°F15.4°C 58.3°F14.6°C 95% 1.9 mph WSW3.1 kmh WSW 4.9 mph7.9 kmh 29.83 in1010.2 mb 0.00 in0.0 mm 0.00 in0.0 mm 0.00 in0.0 mm
06:33 AM 59.9°F15.5°C 58.7°F14.8°C 96% 2.6 mph SW4.2 kmh SW 4.9 mph7.9 kmh 29.83 in1010.2 mb 0.00 in0.0 mm 0.00 in0.0 mm 0.00 in0.0 mm
06:30 AM 60.2°F15.7°C 59.1°F15.1°C 96% 0.7 mph WSW1.1 kmh WSW 2.5 mph4.0 kmh 29.82 in1009.8 mb 0.00 in0.0 mm 0.00 in0.0 mm 0.00 in0.0 mm
06:27 AM 60.5°F15.8°C 59.4°F15.2°C 96% 1.4 mph SW2.3 kmh SW 2.5 mph4.0 kmh 29.82 in1009.8 mb 0.00 in0.0 mm 0.00 in0.0 mm 0.00 in0.0 mm
06:24 AM 60.7°F15.9°C 59.7°F15.4°C 96% 0.9 mph WSW1.4 kmh WSW 2.5 mph4.0 kmh 29.82 in1009.8 mb 0.00 in0.0 mm 0.00 in0.0 mm 0.00 in0.0 mm
06:21 AM 61.0°F16.1°C 59.8°F15.4°C 96% 0.9 mph WSW1.4 kmh WSW 2.5 mph4.0 kmh 29.82 in1009.8 mb 0.00 in0.0 mm 0.00 in0.0 mm 0.00 in0.0 mm
06:18 AM 61.2°F16.2°C 60.0°F15.6°C 96% 1.2 mph SW1.9 kmh SW 2.5 mph4.0 kmh 29.82 in1009.8 mb 0.00 in0.0 mm 0.00 in0.0 mm 0.00 in0.0 mm
06:15 AM 61.3°F16.3°C 60.1°F15.6°C 96% 1.5 mph WSW2.4 kmh WSW 2.5 mph4.0 kmh 29.82 in1009.8 mb 0.00 in0.0 mm 0.00 in0.0 mm 0.00 in0.0 mm
06:12 AM 61.6°F16.4°C 60.4°F15.8°C 96% 0.7 mph WSW1.1 kmh WSW 2.5 mph4.0 kmh 29.82 in1009.8 mb 0.00 in0.0 mm 0.00 in0.0 mm 0.00 in0.0 mm
06:09 AM 61.7°F16.5°C 60.5°F15.8°C 96% 0.5 mph SW0.8 kmh SW 2.5 mph4.0 kmh 29.82 in1009.8 mb 0.00 in0.0 mm 0.00 in0.0 mm 0.00 in0.0 mm
06:06 AM 61.9°F16.6°C 60.7°F15.9°C 96% 2.2 mph WNW3.5 kmh WNW 7.6 mph12.2 kmh 29.82 in1009.8 mb 0.00 in0.0 mm 0.00 in0.0 mm 0.00 in0.0 mm
06:03 AM 61.9°F16.6°C 61.0°F16.1°C 97% 0.3 mph WSW0.5 kmh WSW 2.5 mph4.0 kmh 29.82 in1009.8 mb 0.00 in0.0 mm 0.00 in0.0 mm 0.00 in0.0 mm
06:00 AM 62.1°F16.7°C 61.2°F16.2°C 97% 1.1 mph SW1.8 kmh SW 2.5 mph4.0 kmh 29.82 in1009.8 mb 0.00 in0.0 mm 0.00 in0.0 mm 0.00 in0.0 mm
05:57 AM 62.2°F16.8°C 61.3°F16.3°C 97% 1.4 mph WSW2.3 kmh WSW 2.5 mph4.0 kmh 29.81 in1009.5 mb 0.00 in0.0 mm 0.00 in0.0 mm 0.00 in0.0 mm
05:54 AM 62.2°F16.8°C 61.3°F16.3°C 97% 1.4 mph WSW2.3 kmh WSW 4.9 mph7.9 kmh 29.81 in1009.5 mb 0.00 in0.0 mm 0.00 in0.0 mm 0.00 in0.0 mm
05:51 AM 62.3°F16.8°C 61.5°F16.4°C 97% 0.8 mph WSW1.3 kmh WSW 2.5 mph4.0 kmh 29.82 in1009.8 mb 0.00 in0.0 mm 0.00 in0.0 mm 0.00 in0.0 mm
05:48 AM 62.4°F16.9°C 61.5°F16.4°C 97% 1.3 mph SW2.1 kmh SW 2.5 mph4.0 kmh 29.81 in1009.5 mb 0.00 in0.0 mm 0.00 in0.0 mm 0.00 in0.0 mm
05:45 AM 62.2°F16.8°C 61.3°F16.3°C 97% 0.5 mph SW0.8 kmh SW 2.5 mph4.0 kmh 29.81 in1009.5 mb 0.00 in0.0 mm 0.00 in0.0 mm 0.00 in0.0 mm
05:42 AM 62.2°F16.8°C 61.1°F16.2°C 96% 0.9 mph WSW1.4 kmh WSW 2.5 mph4.0 kmh 29.82 in1009.8 mb 0.00 in0.0 mm 0.00 in0.0 mm 0.00 in0.0 mm
05:39 AM 62.3°F16.8°C 61.1°F16.2°C 96% 0.6 mph SW1.0 kmh SW 2.5 mph4.0 kmh 29.81 in1009.5 mb 0.00 in0.0 mm 0.00 in0.0 mm 0.00 in0.0 mm
05:36 AM 62.4°F16.9°C 61.2°F16.2°C 96% 0.8 mph SW1.3 kmh SW 2.5 mph4.0 kmh 29.81 in1009.5 mb 0.00 in0.0 mm 0.00 in0.0 mm 0.00 in0.0 mm
05:33 AM 62.4°F16.9°C 61.2°F16.2°C 96% 0.5 mph SW0.8 kmh SW 2.5 mph4.0 kmh 29.81 in1009.5 mb 0.00 in0.0 mm 0.00 in0.0 mm 0.00 in0.0 mm
05:30 AM 62.5°F16.9°C 61.1°F16.2°C 95% 0.4 mph SW0.6 kmh SW 2.5 mph4.0 kmh 29.81 in1009.5 mb 0.00 in0.0 mm 0.00 in0.0 mm 0.00 in0.0 mm
05:27 AM 62.5°F16.9°C 61.2°F16.2°C 95% 1.5 mph SW2.4 kmh SW 2.5 mph4.0 kmh 29.81 in1009.5 mb 0.00 in0.0 mm 0.00 in0.0 mm 0.00 in0.0 mm
05:24 AM 62.4°F16.9°C 61.1°F16.2°C 96% 0.7 mph SW1.1 kmh SW 2.5 mph4.0 kmh 29.81 in1009.5 mb 0.00 in0.0 mm 0.00 in0.0 mm 0.00 in0.0 mm
05:21 AM 62.4°F16.9°C 61.1°F16.2°C 96% 0.8 mph SW1.3 kmh SW 2.5 mph4.0 kmh 29.81 in1009.5 mb 0.00 in0.0 mm 0.00 in0.0 mm 0.00 in0.0 mm
05:18 AM 62.5°F16.9°C 61.2°F16.2°C 96% 1.8 mph SW2.9 kmh SW 2.5 mph4.0 kmh 29.81 in1009.5 mb 0.00 in0.0 mm 0.00 in0.0 mm 0.00 in0.0 mm
05:15 AM 62.5°F16.9°C 61.1°F16.2°C 95% 0.2 mph WSW0.3 kmh WSW 2.5 mph4.0 kmh 29.81 in1009.5 mb 0.00 in0.0 mm 0.00 in0.0 mm 0.00 in0.0 mm
05:12 AM 62.6°F17.0°C 61.1°F16.2°C 95% 1.4 mph SW2.3 kmh SW 2.5 mph4.0 kmh 29.81 in1009.5 mb 0.00 in0.0 mm 0.00 in0.0 mm 0.00 in0.0 mm
05:09 AM 62.6°F17.0°C 61.1°F16.2°C 95% 2.0 mph SW3.2 kmh SW 4.9 mph7.9 kmh 29.81 in1009.5 mb 0.00 in0.0 mm 0.00 in0.0 mm 0.00 in0.0 mm
05:06 AM 62.6°F17.0°C 61.1°F16.2°C 95% 1.4 mph SW2.3 kmh SW 4.9 mph7.9 kmh 29.81 in1009.5 mb 0.00 in0.0 mm 0.00 in0.0 mm 0.00 in0.0 mm
05:03 AM 62.6°F17.0°C 61.1°F16.2°C 95% 1.6 mph SW2.6 kmh SW 2.5 mph4.0 kmh 29.81 in1009.5 mb 0.00 in0.0 mm 0.00 in0.0 mm 0.00 in0.0 mm
05:00 AM 62.6°F17.0°C 61.1°F16.2°C 95% 0.7 mph SW1.1 kmh SW 2.5 mph4.0 kmh 29.81 in1009.5 mb 0.00 in0.0 mm 0.00 in0.0 mm 0.00 in0.0 mm
04:57 AM 62.6°F17.0°C 61.1°F16.2°C 95% 0.8 mph SW1.3 kmh SW 2.5 mph4.0 kmh 29.81 in1009.5 mb 0.00 in0.0 mm 0.00 in0.0 mm 0.00 in0.0 mm
04:54 AM 62.6°F17.0°C 61.1°F16.2°C 95% 2.8 mph SW4.5 kmh SW 4.9 mph7.9 kmh 29.81 in1009.5 mb 0.00 in0.0 mm 0.00 in0.0 mm 0.00 in0.0 mm
04:51 AM 62.6°F17.0°C 61.1°F16.2°C 95% 1.7 mph SW2.7 kmh SW 4.9 mph7.9 kmh 29.81 in1009.5 mb 0.00 in0.0 mm 0.00 in0.0 mm 0.00 in0.0 mm
04:48 AM 62.6°F17.0°C 61.1°F16.2°C 95% 1.0 mph SW1.6 kmh SW 2.5 mph4.0 kmh 29.81 in1009.5 mb 0.00 in0.0 mm 0.00 in0.0 mm 0.00 in0.0 mm
04:45 AM 62.6°F17.0°C 61.1°F16.2°C 95% 2.5 mph SW4.0 kmh SW 4.9 mph7.9 kmh 29.81 in1009.5 mb 0.00 in0.0 mm 0.00 in0.0 mm 0.00 in0.0 mm
04:42 AM 62.6°F17.0°C 61.1°F16.2°C 95% 2.8 mph SW4.5 kmh SW 7.6 mph12.2 kmh 29.81 in1009.5 mb 0.00 in0.0 mm 0.00 in0.0 mm 0.00 in0.0 mm
04:39 AM 62.4°F16.9°C 61.1°F16.2°C 96% 2.2 mph SW3.5 kmh SW 4.9 mph7.9 kmh 29.81 in1009.5 mb 0.00 in0.0 mm 0.00 in0.0 mm 0.00 in0.0 mm
04:36 AM 62.5°F16.9°C 61.1°F16.2°C 95% 1.7 mph SW2.7 kmh SW 4.9 mph7.9 kmh 29.80 in1009.1 mb 0.00 in0.0 mm 0.00 in0.0 mm 0.00 in0.0 mm
04:33 AM 62.4°F16.9°C 60.9°F16.1°C 95% 3.1 mph SW5.0 kmh SW 4.9 mph7.9 kmh 29.81 in1009.5 mb 0.00 in0.0 mm 0.00 in0.0 mm 0.00 in0.0 mm
04:30 AM 62.4°F16.9°C 60.9°F16.1°C 95% 2.7 mph SW4.3 kmh SW 4.9 mph7.9 kmh 29.81 in1009.5 mb 0.00 in0.0 mm 0.00 in0.0 mm 0.00 in0.0 mm
04:27 AM 62.4°F16.9°C 60.9°F16.1°C 95% 0.9 mph SW1.4 kmh SW 2.5 mph4.0 kmh 29.80 in1009.1 mb 0.00 in0.0 mm 0.00 in0.0 mm 0.00 in0.0 mm
04:24 AM 62.4°F16.9°C 60.8°F16.0°C 94% 3.0 mph SW4.8 kmh SW 4.9 mph7.9 kmh 29.81 in1009.5 mb 0.00 in0.0 mm 0.00 in0.0 mm 0.00 in0.0 mm
04:21 AM 62.4°F16.9°C 60.9°F16.1°C 95% 2.4 mph SW3.9 kmh SW 4.9 mph7.9 kmh 29.81 in1009.5 mb 0.00 in0.0 mm 0.00 in0.0 mm 0.00 in0.0 mm
04:18 AM 62.5°F16.9°C 60.9°F16.1°C 95% 2.3 mph SW3.7 kmh SW 4.9 mph7.9 kmh 29.80 in1009.1 mb 0.00 in0.0 mm 0.00 in0.0 mm 0.00 in0.0 mm
04:15 AM 62.6°F17.0°C 60.9°F16.1°C 94% 2.2 mph SW3.5 kmh SW 4.9 mph7.9 kmh 29.80 in1009.1 mb 0.00 in0.0 mm 0.00 in0.0 mm 0.00 in0.0 mm
04:12 AM 62.6°F17.0°C 60.8°F16.0°C 94% 2.1 mph SW3.4 kmh SW 2.5 mph4.0 kmh 29.81 in1009.5 mb 0.00 in0.0 mm 0.00 in0.0 mm 0.00 in0.0 mm
04:09 AM 62.6°F17.0°C 60.8°F16.0°C 94% 1.6 mph SW2.6 kmh SW 4.9 mph7.9 kmh 29.80 in1009.1 mb 0.00 in0.0 mm 0.00 in0.0 mm 0.00 in0.0 mm
04:06 AM 62.6°F17.0°C 60.8°F16.0°C 94% 3.4 mph SW5.5 kmh SW 4.9 mph7.9 kmh 29.80 in1009.1 mb 0.00 in0.0 mm 0.00 in0.0 mm 0.00 in0.0 mm
04:03 AM 62.6°F17.0°C 60.8°F16.0°C 94% 2.1 mph SW3.4 kmh SW 4.9 mph7.9 kmh 29.81 in1009.5 mb 0.00 in0.0 mm 0.00 in0.0 mm 0.00 in0.0 mm
04:00 AM 63.0°F17.2°C 61.2°F16.2°C 94% 1.6 mph SW2.6 kmh SW 2.5 mph4.0 kmh 29.80 in1009.1 mb 0.00 in0.0 mm 0.00 in0.0 mm 0.00 in0.0 mm
03:57 AM 63.5°F17.5°C 61.7°F16.5°C 94% 1.2 mph SW1.9 kmh SW 4.9 mph7.9 kmh 29.80 in1009.1 mb 0.00 in0.0 mm 0.00 in0.0 mm 0.00 in0.0 mm
03:54 AM 63.7°F17.6°C 61.9°F16.6°C 94% 1.6 mph SW2.6 kmh SW 4.9 mph7.9 kmh 29.81 in1009.5 mb 0.00 in0.0 mm 0.00 in0.0 mm 0.00 in0.0 mm
03:51 AM 63.7°F17.6°C 61.7°F16.5°C 94% 1.4 mph SW2.3 kmh SW 2.5 mph4.0 kmh 29.81 in1009.5 mb 0.00 in0.0 mm 0.00 in0.0 mm 0.00 in0.0 mm
03:48 AM 63.8°F17.7°C 61.7°F16.5°C 93% 2.6 mph SW4.2 kmh SW 7.6 mph12.2 kmh 29.80 in1009.1 mb 0.00 in0.0 mm 0.00 in0.0 mm 0.00 in0.0 mm
03:45 AM 63.9°F17.7°C 61.8°F16.6°C 93% 3.8 mph SW6.1 kmh SW 7.6 mph12.2 kmh 29.80 in1009.1 mb 0.00 in0.0 mm 0.00 in0.0 mm 0.00 in0.0 mm
03:42 AM 63.9°F17.7°C 61.8°F16.6°C 93% 3.4 mph SW5.5 kmh SW 7.6 mph12.2 kmh 29.80 in1009.1 mb 0.00 in0.0 mm 0.00 in0.0 mm 0.00 in0.0 mm
03:39 AM 63.9°F17.7°C 61.8°F16.6°C 93% 4.0 mph SW6.4 kmh SW 7.6 mph12.2 kmh 29.80 in1009.1 mb 0.00 in0.0 mm 0.00 in0.0 mm 0.00 in0.0 mm
03:36 AM 63.9°F17.7°C 61.8°F16.6°C 93% 2.2 mph SW3.5 kmh SW 4.9 mph7.9 kmh 29.80 in1009.1 mb 0.00 in0.0 mm 0.00 in0.0 mm 0.00 in0.0 mm
03:33 AM 63.9°F17.7°C 61.8°F16.6°C 93% 2.9 mph SSW4.7 kmh SSW 4.9 mph7.9 kmh 29.81 in1009.5 mb 0.00 in0.0 mm 0.00 in0.0 mm 0.00 in0.0 mm
03:30 AM 63.9°F17.7°C 61.8°F16.6°C 93% 3.0 mph SW4.8 kmh SW 4.9 mph7.9 kmh 29.80 in1009.1 mb 0.00 in0.0 mm 0.00 in0.0 mm 0.00 in0.0 mm
03:27 AM 63.9°F17.7°C 61.9°F16.6°C 93% 1.1 mph SW1.8 kmh SW 2.5 mph4.0 kmh 29.80 in1009.1 mb 0.00 in0.0 mm 0.00 in0.0 mm 0.00 in0.0 mm
03:24 AM 64.0°F17.8°C 61.9°F16.6°C 93% 3.5 mph SSW5.6 kmh SSW 7.6 mph12.2 kmh 29.80 in1009.1 mb 0.00 in0.0 mm 0.00 in0.0 mm 0.00 in0.0 mm
03:21 AM 64.0°F17.8°C 61.9°F16.6°C 93% 3.8 mph S6.1 kmh S 7.6 mph12.2 kmh 29.80 in1009.1 mb 0.00 in0.0 mm 0.00 in0.0 mm 0.00 in0.0 mm
03:18 AM 64.0°F17.8°C 61.9°F16.6°C 93% 2.4 mph SW3.9 kmh SW 7.6 mph12.2 kmh 29.81 in1009.5 mb 0.00 in0.0 mm 0.00 in0.0 mm 0.00 in0.0 mm
03:15 AM 64.0°F17.8°C 61.9°F16.6°C 93% 2.2 mph SW3.5 kmh SW 4.9 mph7.9 kmh 29.81 in1009.5 mb 0.00 in0.0 mm 0.00 in0.0 mm 0.00 in0.0 mm
03:12 AM 64.2°F17.9°C 62.3°F16.8°C 94% 2.5 mph SW4.0 kmh SW 4.9 mph7.9 kmh 29.81 in1009.5 mb 0.00 in0.0 mm 0.00 in0.0 mm 0.00 in0.0 mm
03:09 AM 64.1°F17.8°C 62.0°F16.7°C 93% 4.9 mph SSW7.9 kmh SSW 7.6 mph12.2 kmh 29.80 in1009.1 mb 0.00 in0.0 mm 0.00 in0.0 mm 0.00 in0.0 mm
03:06 AM 64.0°F17.8°C 61.8°F16.6°C 92% 3.2 mph S5.1 kmh S 10.1 mph16.3 kmh 29.81 in1009.5 mb 0.00 in0.0 mm 0.00 in0.0 mm 0.00 in0.0 mm
03:03 AM 64.1°F17.8°C 61.7°F16.5°C 92% 1.9 mph SW3.1 kmh SW 4.9 mph7.9 kmh 29.81 in1009.5 mb 0.00 in0.0 mm 0.00 in0.0 mm 0.00 in0.0 mm
03:00 AM 64.1°F17.8°C 61.7°F16.5°C 92% 4.5 mph SSW7.2 kmh SSW 10.1 mph16.3 kmh 29.81 in1009.5 mb 0.00 in0.0 mm 0.00 in0.0 mm 0.00 in0.0 mm
02:57 AM 64.1°F17.8°C 61.7°F16.5°C 92% 2.8 mph SW4.5 kmh SW 4.9 mph7.9 kmh 29.81 in1009.5 mb 0.00 in0.0 mm 0.00 in0.0 mm 0.00 in0.0 mm
02:54 AM 64.0°F17.8°C 61.6°F16.4°C 92% 2.1 mph SW3.4 kmh SW 4.9 mph7.9 kmh 29.82 in1009.8 mb 0.00 in0.0 mm 0.00 in0.0 mm 0.00 in0.0 mm
02:51 AM 64.0°F17.8°C 61.6°F16.4°C 92% 4.8 mph SW7.7 kmh SW 7.6 mph12.2 kmh 29.81 in1009.5 mb 0.00 in0.0 mm 0.00 in0.0 mm 0.00 in0.0 mm
02:48 AM 64.3°F17.9°C 62.2°F16.8°C 93% 2.5 mph SSW4.0 kmh SSW 4.9 mph7.9 kmh 29.81 in1009.5 mb 0.00 in0.0 mm 0.00 in0.0 mm 0.00 in0.0 mm
02:45 AM 64.4°F18.0°C 62.6°F17.0°C 94% 3.0 mph SW4.8 kmh SW 4.9 mph7.9 kmh 29.82 in1009.8 mb 0.00 in0.0 mm 0.00 in0.0 mm 0.00 in0.0 mm
02:42 AM 64.2°F17.9°C 62.0°F16.7°C 92% 2.6 mph SW4.2 kmh SW 4.9 mph7.9 kmh 29.82 in1009.8 mb 0.00 in0.0 mm 0.00 in0.0 mm 0.00 in0.0 mm
02:39 AM 64.2°F17.9°C 62.1°F16.7°C 93% 4.6 mph SSW7.4 kmh SSW 10.1 mph16.3 kmh 29.81 in1009.5 mb 0.00 in0.0 mm 0.00 in0.0 mm 0.00 in0.0 mm
02:36 AM 64.4°F18.0°C 62.4°F16.9°C 94% 4.2 mph SSW6.8 kmh SSW 7.6 mph12.2 kmh 29.82 in1009.8 mb 0.00 in0.0 mm 0.00 in0.0 mm 0.00 in0.0 mm
02:33 AM 64.2°F17.9°C 62.0°F16.7°C 93% 5.1 mph S8.2 kmh S 7.6 mph12.2 kmh 29.82 in1009.8 mb 0.00 in0.0 mm 0.00 in0.0 mm 0.00 in0.0 mm
02:30 AM 64.2°F17.9°C 62.2°F16.8°C 93% 4.4 mph SW7.1 kmh SW 7.6 mph12.2 kmh 29.82 in1009.8 mb 0.00 in0.0 mm 0.00 in0.0 mm 0.00 in0.0 mm
02:27 AM 64.0°F17.8°C 62.0°F16.7°C 93% 2.9 mph SSW4.7 kmh SSW 4.9 mph7.9 kmh 29.82 in1009.8 mb 0.00 in0.0 mm 0.00 in0.0 mm 0.00 in0.0 mm
02:24 AM 64.1°F17.8°C 62.0°F16.7°C 93% 2.2 mph SSW3.5 kmh SSW 4.9 mph7.9 kmh 29.82 in1009.8 mb 0.00 in0.0 mm 0.00 in0.0 mm 0.00 in0.0 mm
02:21 AM 64.0°F17.8°C 61.9°F16.6°C 93% 4.8 mph SSW7.7 kmh SSW 7.6 mph12.2 kmh 29.83 in1010.2 mb 0.00 in0.0 mm 0.00 in0.0 mm 0.00 in0.0 mm
02:18 AM 64.0°F17.8°C 61.9°F16.6°C 93% 6.6 mph S10.6 kmh S 10.1 mph16.3 kmh 29.82 in1009.8 mb 0.00 in0.0 mm 0.00 in0.0 mm 0.00 in0.0 mm
02:15 AM 64.0°F17.8°C 61.9°F16.6°C 93% 5.1 mph SSW8.2 kmh SSW 10.1 mph16.3 kmh 29.83 in1010.2 mb 0.00 in0.0 mm 0.00 in0.0 mm 0.00 in0.0 mm
02:12 AM 63.9°F17.7°C 61.8°F16.6°C 93% 5.2 mph SW8.4 kmh SW 15.0 mph24.1 kmh 29.83 in1010.2 mb 0.00 in0.0 mm 0.00 in0.0 mm 0.00 in0.0 mm
02:09 AM 63.8°F17.7°C 61.7°F16.5°C 93% 1.8 mph SSW2.9 kmh SSW 4.9 mph7.9 kmh 29.83 in1010.2 mb 0.00 in0.0 mm 0.00 in0.0 mm 0.00 in0.0 mm
02:06 AM 63.9°F17.7°C 61.8°F16.6°C 93% 5.1 mph S8.2 kmh S 7.6 mph12.2 kmh 29.82 in1009.8 mb 0.00 in0.0 mm 0.00 in0.0 mm 0.00 in0.0 mm
02:03 AM 63.9°F17.7°C 61.8°F16.6°C 93% 3.5 mph S5.6 kmh S 7.6 mph12.2 kmh 29.82 in1009.8 mb 0.00 in0.0 mm 0.00 in0.0 mm 0.00 in0.0 mm
02:00 AM 63.5°F17.5°C 61.2°F16.2°C 92% 3.0 mph S4.8 kmh S 4.9 mph7.9 kmh 29.83 in1010.2 mb 0.00 in0.0 mm 0.00 in0.0 mm 0.00 in0.0 mm
01:57 AM 63.5°F17.5°C 61.1°F16.2°C 92% 4.6 mph S7.4 kmh S 7.6 mph12.2 kmh 29.83 in1010.2 mb 0.00 in0.0 mm 0.00 in0.0 mm 0.00 in0.0 mm
01:54 AM 63.5°F17.5°C 61.1°F16.2°C 92% 2.5 mph S4.0 kmh S 4.9 mph7.9 kmh 29.83 in1010.2 mb 0.00 in0.0 mm 0.00 in0.0 mm 0.00 in0.0 mm
01:51 AM 63.5°F17.5°C 61.1°F16.2°C 92% 3.7 mph SSW6.0 kmh SSW 7.6 mph12.2 kmh 29.83 in1010.2 mb 0.00 in0.0 mm 0.00 in0.0 mm 0.00 in0.0 mm
01:48 AM 63.5°F17.5°C 61.1°F16.2°C 92% 3.0 mph S4.8 kmh S 4.9 mph7.9 kmh 29.83 in1010.2 mb 0.00 in0.0 mm 0.00 in0.0 mm 0.00 in0.0 mm
01:45 AM 63.5°F17.5°C 61.1°F16.2°C 92% 3.0 mph SSW4.8 kmh SSW 4.9 mph7.9 kmh 29.83 in1010.2 mb 0.00 in0.0 mm 0.00 in0.0 mm 0.00 in0.0 mm
01:42 AM 63.5°F17.5°C 61.1°F16.2°C 92% 3.6 mph S5.8 kmh S 7.6 mph12.2 kmh 29.83 in1010.2 mb 0.00 in0.0 mm 0.00 in0.0 mm 0.00 in0.0 mm
01:39 AM 63.5°F17.5°C 61.3°F16.3°C 93% 3.3 mph SW5.3 kmh SW 7.6 mph12.2 kmh 29.84 in1010.5 mb 0.00 in0.0 mm 0.00 in0.0 mm 0.00 in0.0 mm
01:36 AM 63.5°F17.5°C 61.4°F16.3°C 93% 4.4 mph SW7.1 kmh SW 7.6 mph12.2 kmh 29.83 in1010.2 mb 0.00 in0.0 mm 0.00 in0.0 mm 0.00 in0.0 mm
01:33 AM 63.5°F17.5°C 61.4°F16.3°C 93% 7.4 mph S11.9 kmh S 10.1 mph16.3 kmh 29.83 in1010.2 mb 0.00 in0.0 mm 0.00 in0.0 mm 0.00 in0.0 mm
01:30 AM 63.4°F17.4°C 61.3°F16.3°C 93% 8.6 mph S13.8 kmh S 17.4 mph28.0 kmh 29.83 in1010.2 mb 0.00 in0.0 mm 0.00 in0.0 mm 0.00 in0.0 mm
01:27 AM 63.5°F17.5°C 61.4°F16.3°C 93% 10.0 mph SSE16.1 kmh SSE 17.4 mph28.0 kmh 29.83 in1010.2 mb 0.00 in0.0 mm 0.00 in0.0 mm 0.00 in0.0 mm
01:24 AM 63.3°F17.4°C 61.2°F16.2°C 93% 4.8 mph S7.7 kmh S 12.5 mph20.1 kmh 29.84 in1010.5 mb 0.00 in0.0 mm 0.00 in0.0 mm 0.00 in0.0 mm
01:21 AM 63.3°F17.4°C 61.2°F16.2°C 93% 5.7 mph S9.2 kmh S 10.1 mph16.3 kmh 29.84 in1010.5 mb 0.00 in0.0 mm 0.00 in0.0 mm 0.00 in0.0 mm
01:18 AM 63.2°F17.3°C 61.1°F16.2°C 93% 6.6 mph S10.6 kmh S 17.4 mph28.0 kmh 29.85 in1010.8 mb 0.00 in0.0 mm 0.00 in0.0 mm 0.00 in0.0 mm
01:15 AM 63.1°F17.3°C 61.0°F16.1°C 93% 5.3 mph S8.5 kmh S 10.1 mph16.3 kmh 29.84 in1010.5 mb 0.00 in0.0 mm 0.00 in0.0 mm 0.00 in0.0 mm
01:12 AM 63.1°F17.3°C 61.0°F16.1°C 93% 3.9 mph SW6.3 kmh SW 7.6 mph12.2 kmh 29.85 in1010.8 mb 0.00 in0.0 mm 0.00 in0.0 mm 0.00 in0.0 mm
01:09 AM 63.0°F17.2°C 60.9°F16.1°C 93% 7.0 mph S11.3 kmh S 12.5 mph20.1 kmh 29.85 in1010.8 mb 0.00 in0.0 mm 0.00 in0.0 mm 0.00 in0.0 mm
01:06 AM 63.0°F17.2°C 60.9°F16.1°C 93% 6.7 mph S10.8 kmh S 10.1 mph16.3 kmh 29.84 in1010.5 mb 0.00 in0.0 mm 0.00 in0.0 mm 0.00 in0.0 mm
01:03 AM 62.8°F17.1°C 60.7°F15.9°C 93% 6.4 mph S10.3 kmh S 7.6 mph12.2 kmh 29.84 in1010.5 mb 0.00 in0.0 mm 0.00 in0.0 mm 0.00 in0.0 mm
01:00 AM 62.8°F17.1°C 60.7°F15.9°C 93% 7.9 mph S12.7 kmh S 12.5 mph20.1 kmh 29.83 in1010.2 mb 0.00 in0.0 mm 0.00 in0.0 mm 0.00 in0.0 mm
12:57 AM -- -- - - N N -- -- 0.00 in0.0 mm 0.00 in0.0 mm 0.00 in0.0 mm
12:54 AM 62.8°F17.1°C 61.0°F16.1°C 94% 8.6 mph S13.8 kmh S 12.5 mph20.1 kmh 29.83 in1010.2 mb 0.00 in0.0 mm 0.00 in0.0 mm 0.00 in0.0 mm
12:51 AM 62.2°F16.8°C 60.7°F15.9°C 95% 8.0 mph S12.9 kmh S 12.5 mph20.1 kmh 29.84 in1010.5 mb 0.00 in0.0 mm 0.00 in0.0 mm 0.00 in0.0 mm
12:48 AM 62.1°F16.7°C 60.6°F15.9°C 95% 11.0 mph S17.7 kmh S 15.0 mph24.1 kmh 29.84 in1010.5 mb 0.00 in0.0 mm 0.00 in0.0 mm 0.00 in0.0 mm
12:45 AM 62.1°F16.7°C 60.6°F15.9°C 95% 8.0 mph S12.9 kmh S 15.0 mph24.1 kmh 29.86 in1011.2 mb 0.00 in0.0 mm 0.00 in0.0 mm 0.00 in0.0 mm
12:42 AM 62.1°F16.7°C 60.7°F15.9°C 95% 7.7 mph S12.4 kmh S 12.5 mph20.1 kmh 29.86 in1011.2 mb 0.00 in0.0 mm 0.00 in0.0 mm 0.00 in0.0 mm
12:39 AM 62.0°F16.7°C 60.5°F15.8°C 95% 12.6 mph S20.3 kmh S 17.4 mph28.0 kmh 29.85 in1010.8 mb 0.00 in0.0 mm 0.00 in0.0 mm 0.00 in0.0 mm
12:36 AM 61.9°F16.6°C 60.5°F15.8°C 95% 6.5 mph S10.5 kmh S 12.5 mph20.1 kmh 29.84 in1010.5 mb 0.00 in0.0 mm 0.00 in0.0 mm 0.00 in0.0 mm
12:33 AM 61.7°F16.5°C 60.3°F15.7°C 95% 14.1 mph SSE22.7 kmh SSE 20.1 mph32.3 kmh 29.85 in1010.8 mb 0.00 in0.0 mm 0.00 in0.0 mm 0.00 in0.0 mm
12:30 AM 61.8°F16.6°C 60.4°F15.8°C 95% 7.4 mph S11.9 kmh S 12.5 mph20.1 kmh 29.84 in1010.5 mb 0.00 in0.0 mm 0.00 in0.0 mm 0.00 in0.0 mm
12:27 AM 61.9°F16.6°C 60.4°F15.8°C 95% 8.9 mph S14.3 kmh S 15.0 mph24.1 kmh 29.85 in1010.8 mb 0.00 in0.0 mm 0.00 in0.0 mm 0.00 in0.0 mm
12:24 AM 61.7°F16.5°C 60.3°F15.7°C 95% 10.5 mph S16.9 kmh S 15.0 mph24.1 kmh 29.86 in1011.2 mb 0.00 in0.0 mm 0.00 in0.0 mm 0.00 in0.0 mm
12:21 AM 61.5°F16.4°C 60.1°F15.6°C 95% 8.4 mph S13.5 kmh S 12.5 mph20.1 kmh 29.86 in1011.2 mb 0.00 in0.0 mm 0.00 in0.0 mm 0.00 in0.0 mm
12:18 AM 61.5°F16.4°C 60.1°F15.6°C 95% 10.5 mph SSE16.9 kmh SSE 15.0 mph24.1 kmh 29.86 in1011.2 mb 0.00 in0.0 mm 0.00 in0.0 mm 0.00 in0.0 mm
12:15 AM 61.4°F16.3°C 59.9°F15.5°C 95% 9.5 mph S15.3 kmh S 15.0 mph24.1 kmh 29.86 in1011.2 mb 0.00 in0.0 mm 0.00 in0.0 mm 0.00 in0.0 mm
12:12 AM 61.3°F16.3°C 59.9°F15.5°C 95% 7.2 mph S11.6 kmh S 12.5 mph20.1 kmh 29.86 in1011.2 mb 0.00 in0.0 mm 0.00 in0.0 mm 0.00 in0.0 mm
12:09 AM 61.3°F16.3°C 59.9°F15.5°C 95% 7.2 mph S11.6 kmh S 12.5 mph20.1 kmh 29.86 in1011.2 mb 0.00 in0.0 mm 0.00 in0.0 mm 0.00 in0.0 mm
12:06 AM 61.3°F16.3°C 59.9°F15.5°C 95% 7.7 mph SSE12.4 kmh SSE 12.5 mph20.1 kmh 29.85 in1010.8 mb 0.00 in0.0 mm 0.00 in0.0 mm 0.00 in0.0 mm
12:03 AM 61.3°F16.3°C 59.9°F15.5°C 95% 9.4 mph S15.1 kmh S 12.5 mph20.1 kmh 29.86 in1011.2 mb 0.00 in0.0 mm 0.00 in0.0 mm 0.00 in0.0 mm
12:00 AM 61.2°F16.2°C 59.8°F15.4°C 95% 7.9 mph S12.7 kmh S 12.5 mph20.1 kmh 29.86 in1011.2 mb 0.00 in0.0 mm 0.00 in0.0 mm 0.00 in0.0 mm